createdAt,value
2023-03-03T00:02:27.454Z,1.50
2023-03-03T00:04:59.514Z,1.40
2023-03-03T00:07:31.571Z,1.40
2023-03-03T00:10:04.883Z,1.40
2023-03-03T00:12:49.028Z,1.40
2023-03-03T00:15:25.412Z,1.30
2023-03-03T00:17:58.768Z,1.30
2023-03-03T00:20:40.568Z,1.20
2023-03-03T00:23:35.764Z,1.20
2023-03-03T00:26:45.418Z,1.20
2023-03-03T00:29:36.498Z,1.10
2023-03-03T00:32:43.759Z,1.10
2023-03-03T00:35:30.295Z,1.00
2023-03-03T00:38:18.551Z,1.00
2023-03-03T00:40:51.020Z,0.90
2023-03-03T00:43:34.432Z,0.90
2023-03-03T00:46:10.112Z,0.90
2023-03-03T00:48:49.592Z,0.90
2023-03-03T00:51:37.196Z,0.90
2023-03-03T00:54:09.344Z,0.80
2023-03-03T00:56:41.335Z,0.90
2023-03-03T00:59:13.412Z,0.90
2023-03-03T01:01:45.389Z,0.90
2023-03-03T01:04:17.412Z,0.90
2023-03-03T01:06:49.809Z,0.90
2023-03-03T01:09:22.092Z,0.90
2023-03-03T01:11:55.491Z,0.80
2023-03-03T01:14:27.767Z,0.90
2023-03-03T01:16:59.911Z,0.80
2023-03-03T01:19:32.834Z,0.80
2023-03-03T01:22:04.758Z,0.80
2023-03-03T01:24:36.908Z,0.80
2023-03-03T01:27:09.096Z,0.70
2023-03-03T01:29:41.084Z,0.70
2023-03-03T01:32:13.082Z,0.70
2023-03-03T01:34:45.239Z,0.60
2023-03-03T01:37:17.388Z,0.60
2023-03-03T01:39:51.376Z,0.60
2023-03-03T01:42:29.099Z,0.60
2023-03-03T01:45:24.226Z,0.50
2023-03-03T01:48:07.614Z,0.50
2023-03-03T01:51:07.852Z,0.40
2023-03-03T01:54:02.626Z,0.40
2023-03-03T01:56:38.845Z,0.40
2023-03-03T01:59:17.537Z,0.40
2023-03-03T02:01:53.958Z,0.30
2023-03-03T02:04:26.949Z,0.30
2023-03-03T02:07:07.502Z,0.30
2023-03-03T02:10:07.576Z,0.20
2023-03-03T02:12:57.085Z,0.20
2023-03-03T02:15:32.916Z,0.20
2023-03-03T02:18:13.106Z,0.20
2023-03-03T02:20:57.586Z,0.10
2023-03-03T02:23:47.365Z,0.10
2023-03-03T02:26:34.260Z,0.10
2023-03-03T02:29:10.021Z,0.10
2023-03-03T02:31:43.193Z,0.10
2023-03-03T02:34:15.304Z,0.00
2023-03-03T02:36:47.580Z,0.00
2023-03-03T02:39:22.550Z,0.00
2023-03-03T02:42:02.524Z,0.00
2023-03-03T02:44:40.487Z,-0.10
2023-03-03T02:47:12.819Z,-0.10
2023-03-03T02:49:45.316Z,-0.10
2023-03-03T02:52:19.035Z,-0.10
2023-03-03T02:54:50.974Z,-0.10
2023-03-03T02:57:23.044Z,-0.10
2023-03-03T02:59:55.182Z,-0.10
2023-03-03T03:02:27.487Z,-0.10
2023-03-03T03:04:59.441Z,-0.10
2023-03-03T03:07:31.445Z,-0.10
2023-03-03T03:10:03.775Z,0.00
2023-03-03T03:12:36.558Z,0.00
2023-03-03T03:15:10.047Z,0.10
2023-03-03T03:17:42.261Z,0.10
2023-03-03T03:20:15.034Z,0.10
2023-03-03T03:22:47.102Z,0.10
2023-03-03T03:25:19.141Z,0.10
2023-03-03T03:27:51.180Z,0.20
2023-03-03T03:30:23.212Z,0.20
2023-03-03T03:32:55.387Z,0.20
2023-03-03T03:35:27.396Z,0.30
2023-03-03T03:37:59.620Z,0.30
2023-03-03T03:40:31.711Z,0.30
2023-03-03T03:43:03.818Z,0.40
2023-03-03T03:45:35.955Z,0.40
2023-03-03T03:48:07.968Z,0.40
2023-03-03T03:50:40.155Z,0.40
2023-03-03T03:53:12.225Z,0.40
2023-03-03T03:55:46.047Z,0.50
2023-03-03T03:58:19.170Z,0.50
2023-03-03T04:00:51.308Z,0.50
2023-03-03T04:03:23.528Z,0.50
2023-03-03T04:05:55.692Z,0.50
2023-03-03T04:08:27.724Z,0.50
2023-03-03T04:11:01.888Z,0.50
2023-03-03T04:13:35.230Z,0.50
2023-03-03T04:16:07.537Z,0.60
2023-03-03T04:18:39.616Z,0.60
2023-03-03T04:21:14.708Z,0.60
2023-03-03T04:23:46.960Z,0.60
2023-03-03T04:26:19.241Z,0.70
2023-03-03T04:28:51.308Z,0.70
2023-03-03T04:31:23.637Z,0.80
2023-03-03T04:33:59.606Z,0.80
2023-03-03T04:36:31.588Z,0.90
2023-03-03T04:39:03.747Z,0.90
2023-03-03T04:41:35.955Z,1.00
2023-03-03T04:44:07.920Z,1.00
2023-03-03T04:46:39.988Z,1.00
2023-03-03T04:49:12.680Z,1.10
2023-03-03T04:51:44.815Z,1.10
2023-03-03T04:54:16.958Z,1.10
2023-03-03T04:57:12.951Z,1.20
2023-03-03T04:59:45.111Z,1.20
2023-03-03T05:02:17.563Z,1.30
2023-03-03T05:04:50.046Z,1.30
2023-03-03T05:07:22.110Z,1.30
2023-03-03T05:09:55.335Z,1.30
2023-03-03T05:12:27.330Z,1.40
2023-03-03T05:14:59.429Z,1.40
2023-03-03T05:17:32.202Z,1.40
2023-03-03T05:20:08.496Z,1.40
2023-03-03T05:22:42.836Z,1.50
2023-03-03T05:25:14.995Z,1.50
2023-03-03T05:27:47.485Z,1.50
2023-03-03T05:30:19.639Z,1.50
2023-03-03T05:32:51.791Z,1.50
2023-03-03T05:35:23.849Z,1.50
2023-03-03T05:37:58.145Z,1.50
2023-03-03T05:40:30.504Z,1.50
2023-03-03T05:43:02.705Z,1.50
2023-03-03T05:45:35.580Z,1.50
2023-03-03T05:48:07.913Z,1.50
2023-03-03T05:50:41.123Z,1.50
2023-03-03T05:53:13.228Z,1.50
2023-03-03T05:55:45.201Z,1.60
2023-03-03T05:58:17.227Z,1.60
2023-03-03T06:00:49.181Z,1.60
2023-03-03T06:03:21.364Z,1.60
2023-03-03T06:05:53.562Z,1.60
2023-03-03T06:08:25.755Z,1.60
2023-03-03T06:10:58.243Z,1.70
2023-03-03T06:13:30.400Z,1.70
2023-03-03T06:16:02.696Z,1.60
2023-03-03T06:18:34.997Z,1.70
2023-03-03T06:21:07.266Z,1.70
2023-03-03T06:23:39.299Z,1.70
2023-03-03T06:26:11.717Z,1.70
2023-03-03T06:28:43.696Z,1.70
2023-03-03T06:31:15.996Z,1.70
2023-03-03T06:33:47.984Z,1.70
2023-03-03T06:36:20.788Z,1.70
2023-03-03T06:38:52.835Z,1.80
2023-03-03T06:41:24.966Z,1.80
2023-03-03T06:43:58.346Z,1.80
2023-03-03T06:46:31.102Z,1.80
2023-03-03T06:49:03.306Z,1.80
2023-03-03T06:51:39.767Z,1.90
2023-03-03T06:54:17.711Z,1.90
2023-03-03T06:57:00.679Z,1.90
2023-03-03T06:59:44.902Z,1.90
2023-03-03T07:02:21.098Z,1.90
2023-03-03T07:04:55.978Z,1.90
2023-03-03T07:07:28.079Z,1.90
2023-03-03T07:10:00.701Z,1.90
2023-03-03T07:12:38.550Z,2.00
2023-03-03T07:15:20.534Z,2.00
2023-03-03T07:17:59.576Z,2.00
2023-03-03T07:20:36.753Z,2.00
2023-03-03T07:23:24.244Z,2.00
2023-03-03T07:26:11.701Z,2.10
2023-03-03T07:28:58.463Z,2.10
2023-03-03T07:31:40.897Z,2.20
2023-03-03T07:34:21.964Z,2.20
2023-03-03T07:37:35.707Z,2.20
2023-03-03T07:40:51.436Z,2.30
2023-03-03T07:43:45.572Z,2.40
2023-03-03T07:46:23.579Z,2.40
2023-03-03T07:49:36.046Z,2.50
2023-03-03T07:52:29.868Z,2.60
2023-03-03T07:55:42.011Z,2.70
2023-03-03T07:58:17.260Z,2.80
2023-03-03T08:01:19.601Z,2.80
2023-03-03T08:04:42.666Z,2.90
2023-03-03T08:07:34.380Z,3.00
2023-03-03T08:10:35.058Z,3.00
2023-03-03T08:13:22.799Z,3.10
2023-03-03T08:16:04.790Z,3.10
2023-03-03T08:19:02.154Z,3.30
2023-03-03T08:21:36.651Z,3.50
2023-03-03T08:24:08.837Z,3.80
2023-03-03T08:26:41.006Z,4.00
2023-03-03T08:29:13.614Z,4.40
2023-03-03T08:31:46.233Z,4.60
2023-03-03T08:34:19.463Z,5.20
2023-03-03T08:36:52.185Z,5.90
2023-03-03T08:39:25.123Z,6.20
2023-03-03T08:41:57.944Z,6.30
2023-03-03T08:44:30.354Z,6.40
2023-03-03T08:47:02.657Z,6.50
2023-03-03T08:49:35.122Z,6.60
2023-03-03T08:52:07.373Z,6.60
2023-03-03T08:54:39.643Z,6.80
2023-03-03T08:57:12.523Z,7.00
2023-03-03T08:59:45.514Z,7.20
2023-03-03T09:02:18.973Z,7.30
2023-03-03T09:04:51.783Z,7.40
2023-03-03T09:07:24.644Z,7.40
2023-03-03T09:09:57.066Z,7.60
2023-03-03T09:12:35.835Z,7.80
2023-03-03T09:15:28.783Z,7.90
2023-03-03T09:18:25.081Z,8.00
2023-03-03T09:21:29.904Z,7.90
2023-03-03T09:24:05.867Z,7.70
2023-03-03T09:26:55.819Z,7.50
2023-03-03T09:29:37.643Z,7.40
2023-03-03T09:32:34.420Z,7.30
2023-03-03T09:35:38.492Z,7.30
2023-03-03T09:38:19.615Z,7.20
2023-03-03T09:41:36.441Z,7.10
2023-03-03T09:45:01.280Z,7.10
2023-03-03T09:48:24.754Z,7.00
2023-03-03T09:51:41.899Z,7.00
2023-03-03T09:54:47.524Z,7.00
2023-03-03T09:58:10.904Z,7.00
2023-03-03T10:01:41.564Z,7.00
2023-03-03T10:04:42.624Z,7.10
2023-03-03T10:08:10.698Z,7.10
2023-03-03T10:11:44.363Z,7.30
2023-03-03T10:14:57.927Z,7.30
2023-03-03T10:18:14.946Z,7.40
2023-03-03T10:21:12.028Z,7.60
2023-03-03T10:24:21.043Z,7.70
2023-03-03T10:27:28.200Z,7.70
2023-03-03T10:30:48.563Z,7.80
2023-03-03T10:34:06.005Z,7.90
2023-03-03T10:37:06.940Z,8.10
2023-03-03T10:40:21.669Z,8.40
2023-03-03T10:43:32.027Z,8.50
2023-03-03T10:46:31.435Z,8.50
2023-03-03T10:49:32.608Z,8.60
2023-03-03T10:52:49.327Z,8.70
2023-03-03T10:56:15.978Z,8.70
2023-03-03T10:59:36.876Z,8.70
2023-03-03T11:03:14.364Z,9.00
2023-03-03T11:06:22.205Z,9.10
2023-03-03T11:09:49.244Z,9.10
2023-03-03T11:12:50.308Z,9.20
2023-03-03T11:15:50.068Z,9.30
2023-03-03T11:18:36.445Z,9.20
2023-03-03T11:21:51.037Z,9.20
2023-03-03T11:24:38.220Z,9.10
2023-03-03T11:27:53.066Z,9.00
2023-03-03T11:30:59.949Z,8.90
2023-03-03T11:34:06.675Z,8.80
2023-03-03T11:37:16.794Z,8.80
2023-03-03T11:40:22.228Z,8.80
2023-03-03T11:43:11.827Z,8.80
2023-03-03T11:46:13.088Z,8.80
2023-03-03T11:49:19.946Z,8.80
2023-03-03T11:52:22.507Z,8.90
2023-03-03T11:55:39.445Z,9.00
2023-03-03T11:58:43.894Z,9.00
2023-03-03T12:02:18.485Z,9.00
2023-03-03T12:05:15.614Z,9.00
2023-03-03T12:08:19.393Z,9.00
2023-03-03T12:11:28.604Z,9.10
2023-03-03T12:14:46.624Z,9.10
2023-03-03T12:17:56.915Z,9.10
2023-03-03T12:20:59.392Z,9.20
2023-03-03T12:24:16.608Z,9.40
2023-03-03T12:27:30.036Z,9.50
2023-03-03T12:30:34.835Z,9.60
2023-03-03T12:33:44.416Z,9.90
2023-03-03T12:37:06.532Z,10.20
2023-03-03T12:40:10.503Z,10.40
2023-03-03T12:43:43.109Z,10.70
2023-03-03T12:46:57.993Z,10.90
2023-03-03T12:50:06.528Z,11.10
2023-03-03T12:53:18.424Z,11.30
2023-03-03T12:56:14.155Z,11.50
2023-03-03T12:59:18.254Z,11.70
2023-03-03T13:02:18.834Z,11.80
2023-03-03T13:05:13.872Z,11.80
2023-03-03T13:08:48.353Z,11.90
2023-03-03T13:11:51.582Z,11.90
2023-03-03T13:14:45.293Z,12.00
2023-03-03T13:17:37.532Z,11.90
2023-03-03T13:20:36.140Z,12.10
2023-03-03T13:23:32.401Z,12.10
2023-03-03T13:27:17.117Z,12.20
2023-03-03T13:30:01.764Z,12.40
2023-03-03T13:32:52.544Z,12.40
2023-03-03T13:35:46.167Z,12.50
2023-03-03T13:38:44.071Z,12.60
2023-03-03T13:41:32.281Z,12.60
2023-03-03T13:44:32.552Z,12.60
2023-03-03T13:47:28.620Z,12.80
2023-03-03T13:50:25.657Z,12.80
2023-03-03T13:53:32.775Z,13.00
2023-03-03T13:56:49.032Z,13.00
2023-03-03T14:00:05.925Z,13.00
2023-03-03T14:02:57.955Z,13.00
2023-03-03T14:05:53.296Z,13.10
2023-03-03T14:09:32.929Z,13.10
2023-03-03T14:12:34.777Z,13.10
2023-03-03T14:15:52.741Z,13.00
2023-03-03T14:18:42.029Z,12.90
2023-03-03T14:21:48.054Z,12.90
2023-03-03T14:25:05.570Z,12.90
2023-03-03T14:27:47.942Z,13.00
2023-03-03T14:30:38.767Z,13.20
2023-03-03T14:33:14.127Z,13.20
2023-03-03T14:35:56.571Z,13.10
2023-03-03T14:38:34.770Z,13.10
2023-03-03T14:41:10.291Z,13.00
2023-03-03T14:44:00.741Z,13.00
2023-03-03T14:47:23.873Z,13.10
2023-03-03T14:50:03.685Z,13.10
2023-03-03T14:53:24.222Z,13.10
2023-03-03T14:56:29.319Z,13.00
2023-03-03T14:59:27.097Z,13.00
2023-03-03T15:02:23.179Z,12.80
2023-03-03T15:05:24.051Z,12.70
2023-03-03T15:08:11.280Z,12.60
2023-03-03T15:10:46.318Z,12.60
2023-03-03T15:13:21.934Z,12.50
2023-03-03T15:16:11.338Z,12.40
2023-03-03T15:19:07.241Z,12.30
2023-03-03T15:22:07.721Z,12.40
2023-03-03T15:25:09.256Z,12.20
2023-03-03T15:28:29.210Z,12.20
2023-03-03T15:32:04.409Z,12.10
2023-03-03T15:35:00.377Z,12.00
2023-03-03T15:38:37.692Z,12.00
2023-03-03T15:41:35.327Z,12.00
2023-03-03T15:44:52.685Z,12.00
2023-03-03T15:48:07.036Z,12.00
2023-03-03T15:51:20.550Z,11.90
2023-03-03T15:54:31.454Z,11.80
2023-03-03T15:57:41.528Z,11.60
2023-03-03T16:01:01.164Z,11.50
2023-03-03T16:04:01.122Z,11.40
2023-03-03T16:07:06.029Z,11.20
2023-03-03T16:10:01.037Z,11.10
2023-03-03T16:13:17.917Z,10.90
2023-03-03T16:16:21.462Z,10.80
2023-03-03T16:19:32.300Z,10.70
2023-03-03T16:22:36.054Z,10.60
2023-03-03T16:25:40.489Z,10.50
2023-03-03T16:28:51.697Z,10.40
2023-03-03T16:31:50.034Z,10.30
2023-03-03T16:34:56.697Z,10.10
2023-03-03T16:38:02.922Z,9.90
2023-03-03T16:40:55.285Z,9.80
2023-03-03T16:43:53.752Z,9.70
2023-03-03T16:46:49.512Z,9.50
2023-03-03T16:49:39.400Z,9.40
2023-03-03T16:52:45.011Z,9.30
2023-03-03T16:56:23.699Z,9.20
2023-03-03T16:59:04.687Z,9.00
2023-03-03T17:02:27.207Z,8.90
2023-03-03T17:05:44.587Z,8.80
2023-03-03T17:08:44.003Z,8.70
2023-03-03T17:12:00.608Z,8.60
2023-03-03T17:14:56.845Z,8.50
2023-03-03T17:18:05.193Z,8.40
2023-03-03T17:21:00.940Z,8.20
2023-03-03T17:24:06.363Z,8.10
2023-03-03T17:27:08.362Z,8.10
2023-03-03T17:29:57.079Z,7.90
2023-03-03T17:32:52.676Z,7.80
2023-03-03T17:36:22.910Z,7.80
2023-03-03T17:39:50.390Z,7.60
2023-03-03T17:43:02.478Z,7.50
2023-03-03T17:45:47.818Z,7.40
2023-03-03T17:48:39.464Z,7.40
2023-03-03T17:51:58.393Z,7.30
2023-03-03T17:54:59.494Z,7.20
2023-03-03T17:58:26.236Z,7.20
2023-03-03T18:01:33.265Z,7.00
2023-03-03T18:04:47.894Z,7.00
2023-03-03T18:07:52.064Z,6.90
2023-03-03T18:11:06.077Z,6.90
2023-03-03T18:14:07.471Z,6.90
2023-03-03T18:17:24.135Z,6.80
2023-03-03T18:20:30.297Z,6.70
2023-03-03T18:23:32.083Z,6.60
2023-03-03T18:26:44.008Z,6.50
2023-03-03T18:29:24.404Z,6.50
2023-03-03T18:32:00.312Z,6.40
2023-03-03T18:34:39.050Z,6.30
2023-03-03T18:37:37.332Z,6.20
2023-03-03T18:40:18.016Z,6.20
2023-03-03T18:43:00.329Z,6.10
2023-03-03T18:45:53.741Z,6.10
2023-03-03T18:49:13.137Z,6.00
2023-03-03T18:51:50.384Z,5.90
2023-03-03T18:54:43.456Z,5.90
2023-03-03T18:57:39.510Z,5.80
2023-03-03T19:00:32.084Z,5.80
2023-03-03T19:03:32.738Z,5.70
2023-03-03T19:06:37.573Z,5.60
2023-03-03T19:09:51.764Z,5.50
2023-03-03T19:12:52.823Z,5.50
2023-03-03T19:15:30.592Z,5.50
2023-03-03T19:18:25.807Z,5.40
2023-03-03T19:21:05.330Z,5.40
2023-03-03T19:24:06.566Z,5.30
2023-03-03T19:27:14.253Z,5.30
2023-03-03T19:30:23.423Z,5.20
2023-03-03T19:33:40.943Z,5.20
2023-03-03T19:36:42.453Z,5.10
2023-03-03T19:40:21.453Z,5.00
2023-03-03T19:43:37.718Z,5.00
2023-03-03T19:46:58.176Z,4.80
2023-03-03T19:49:50.132Z,4.80
2023-03-03T19:52:47.720Z,4.70
2023-03-03T19:55:55.537Z,4.70
2023-03-03T19:59:00.048Z,4.60
2023-03-03T20:02:39.897Z,4.50
2023-03-03T20:06:05.037Z,4.40
2023-03-03T20:08:54.633Z,4.30
2023-03-03T20:12:02.200Z,4.20
2023-03-03T20:15:23.601Z,4.20
2023-03-03T20:18:45.314Z,4.10
2023-03-03T20:21:58.916Z,4.00
2023-03-03T20:25:04.314Z,4.00
2023-03-03T20:28:03.363Z,3.90
2023-03-03T20:31:23.995Z,3.90
2023-03-03T20:34:16.880Z,3.90
2023-03-03T20:37:15.663Z,3.80
2023-03-03T20:40:31.639Z,3.80
2023-03-03T20:43:57.381Z,3.70
2023-03-03T20:47:12.378Z,3.70
2023-03-03T20:50:24.876Z,3.60
2023-03-03T20:53:38.852Z,3.50
2023-03-03T20:56:46.133Z,3.40
2023-03-03T20:59:45.529Z,3.40
2023-03-03T21:02:56.070Z,3.30
2023-03-03T21:06:19.664Z,3.30
2023-03-03T21:08:57.814Z,3.20
2023-03-03T21:11:31.003Z,3.20
2023-03-03T21:14:36.459Z,3.20
2023-03-03T21:17:28.143Z,3.10
2023-03-03T21:20:33.278Z,3.10
2023-03-03T21:23:06.823Z,3.00
2023-03-03T21:25:43.854Z,3.00
2023-03-03T21:28:30.774Z,3.00
2023-03-03T21:31:17.319Z,2.90
2023-03-03T21:33:54.566Z,2.80
2023-03-03T21:36:37.079Z,2.80
2023-03-03T21:39:31.924Z,2.70
2023-03-03T21:42:19.595Z,2.70
2023-03-03T21:45:13.928Z,2.60
2023-03-03T21:47:48.379Z,2.60
2023-03-03T21:50:21.585Z,2.50
2023-03-03T21:52:56.305Z,2.50
2023-03-03T21:55:28.507Z,2.50
2023-03-03T21:58:00.615Z,2.40
2023-03-03T22:00:33.050Z,2.40
2023-03-03T22:03:05.227Z,2.40
2023-03-03T22:05:38.042Z,2.30
2023-03-03T22:08:10.465Z,2.30
2023-03-03T22:10:42.804Z,2.20
2023-03-03T22:13:17.053Z,2.20
2023-03-03T22:15:51.753Z,2.20
2023-03-03T22:18:24.938Z,2.20
2023-03-03T22:20:57.385Z,2.10
2023-03-03T22:23:29.552Z,2.00
2023-03-03T22:26:02.334Z,2.00
2023-03-03T22:28:34.996Z,1.90
2023-03-03T22:31:07.951Z,1.90
2023-03-03T22:33:49.122Z,1.90
2023-03-03T22:36:23.149Z,1.80
2023-03-03T22:38:55.500Z,1.80
2023-03-03T22:41:27.717Z,1.70
2023-03-03T22:43:59.984Z,1.70
2023-03-03T22:46:32.228Z,1.60
2023-03-03T22:49:04.329Z,1.60
2023-03-03T22:51:36.372Z,1.50
2023-03-03T22:54:08.522Z,1.50
2023-03-03T22:56:40.740Z,1.40
2023-03-03T22:59:12.902Z,1.40
2023-03-03T23:01:44.896Z,1.40
2023-03-03T23:04:17.124Z,1.40
2023-03-03T23:06:50.128Z,1.40
2023-03-03T23:09:22.543Z,1.40
2023-03-03T23:11:54.763Z,1.30
2023-03-03T23:14:27.115Z,1.30
2023-03-03T23:16:59.265Z,1.30
2023-03-03T23:20:11.926Z,1.30
2023-03-03T23:22:48.826Z,1.30
2023-03-03T23:25:23.164Z,1.30
2023-03-03T23:27:56.850Z,1.20
2023-03-03T23:30:29.028Z,1.20
2023-03-03T23:33:01.077Z,1.20
2023-03-03T23:35:33.231Z,1.20
2023-03-03T23:38:05.490Z,1.30
2023-03-03T23:40:38.138Z,1.20
2023-03-03T23:43:10.966Z,1.30
2023-03-03T23:45:44.395Z,1.30
2023-03-03T23:48:17.057Z,1.30
2023-03-03T23:50:50.240Z,1.30
2023-03-03T23:53:24.934Z,1.30
2023-03-03T23:55:57.207Z,1.30
2023-03-03T23:58:30.120Z,1.20
